createdAt,value
2024-03-14T00:00:19.033Z,51.00
2024-03-14T00:01:23.035Z,44.05
2024-03-14T00:02:25.198Z,45.20
2024-03-14T00:03:29.659Z,39.60
2024-03-14T00:04:32.999Z,43.28
2024-03-14T00:05:35.200Z,43.55
2024-03-14T00:06:37.513Z,39.95
2024-03-14T00:07:39.857Z,41.08
2024-03-14T00:08:42.179Z,39.22
2024-03-14T00:09:45.155Z,42.88
2024-03-14T00:10:49.154Z,40.22
2024-03-14T00:11:53.602Z,48.80
2024-03-14T00:12:57.020Z,40.38
2024-03-14T00:13:59.609Z,38.65
2024-03-14T00:15:01.999Z,39.08
2024-03-14T00:16:05.007Z,39.47
2024-03-14T00:17:07.421Z,35.67
2024-03-14T00:18:11.403Z,38.70
2024-03-14T00:19:13.844Z,40.17
2024-03-14T00:20:16.808Z,35.22
2024-03-14T00:21:18.910Z,38.95
2024-03-14T00:22:23.157Z,37.65
2024-03-14T00:23:28.428Z,35.15
2024-03-14T00:24:30.942Z,41.85
2024-03-14T00:25:33.344Z,31.60
2024-03-14T00:26:37.357Z,37.15
2024-03-14T00:27:40.249Z,36.75
2024-03-14T00:28:42.676Z,38.90
2024-03-14T00:29:47.271Z,35.53
2024-03-14T00:30:51.175Z,34.08
2024-03-14T00:31:53.758Z,33.67
2024-03-14T00:32:56.043Z,32.65
2024-03-14T00:33:58.432Z,34.92
2024-03-14T00:35:00.686Z,33.25
2024-03-14T00:36:03.109Z,32.08
2024-03-14T00:37:08.499Z,32.53
2024-03-14T00:38:11.347Z,34.78
2024-03-14T00:39:13.736Z,32.05
2024-03-14T00:40:15.980Z,36.17
2024-03-14T00:41:18.443Z,34.40
2024-03-14T00:42:21.430Z,36.40
2024-03-14T00:43:23.676Z,35.65
2024-03-14T00:44:26.015Z,39.47
2024-03-14T00:45:28.247Z,37.35
2024-03-14T00:46:34.554Z,35.42
2024-03-14T00:47:37.334Z,39.90
2024-03-14T00:48:39.673Z,35.88
2024-03-14T00:49:42.177Z,39.33
2024-03-14T00:50:44.350Z,34.70
2024-03-14T00:51:46.614Z,40.20
2024-03-14T00:52:48.725Z,36.72
2024-03-14T00:53:52.412Z,36.88
2024-03-14T00:54:57.125Z,40.95
2024-03-14T00:56:03.118Z,34.40
2024-03-14T00:57:05.929Z,36.30
2024-03-14T00:58:12.409Z,44.72
2024-03-14T00:59:14.542Z,41.65
2024-03-14T01:00:19.471Z,37.90
2024-03-14T01:01:22.936Z,34.55
2024-03-14T01:02:27.422Z,44.28
2024-03-14T01:03:31.913Z,40.15
2024-03-14T01:04:35.610Z,40.63
2024-03-14T01:05:39.198Z,39.83
2024-03-14T01:06:41.461Z,36.15
2024-03-14T01:07:43.669Z,38.63
2024-03-14T01:08:45.967Z,36.33
2024-03-14T01:09:48.806Z,35.92
2024-03-14T01:10:50.997Z,41.35
2024-03-14T01:11:56.726Z,37.22
2024-03-14T01:12:59.308Z,35.75
2024-03-14T01:14:01.629Z,35.45
2024-03-14T01:15:07.516Z,37.78
2024-03-14T01:16:09.944Z,35.75
2024-03-14T01:17:12.297Z,39.38
2024-03-14T01:18:14.693Z,34.33
2024-03-14T01:19:17.425Z,42.15
2024-03-14T01:20:19.636Z,39.17
2024-03-14T01:21:22.245Z,44.22
2024-03-14T01:22:24.637Z,40.83
2024-03-14T01:23:26.719Z,37.47
2024-03-14T01:24:29.012Z,40.17
2024-03-14T01:25:31.262Z,37.80
2024-03-14T01:26:36.367Z,35.83
2024-03-14T01:27:39.017Z,36.65
2024-03-14T01:28:41.142Z,49.05
2024-03-14T01:29:43.657Z,37.60
2024-03-14T01:30:45.918Z,39.53
2024-03-14T01:31:49.043Z,37.55
2024-03-14T01:32:51.451Z,40.67
2024-03-14T01:33:53.831Z,35.42
2024-03-14T01:34:56.324Z,38.88
2024-03-14T01:36:01.972Z,39.45
2024-03-14T01:37:07.578Z,42.05
2024-03-14T01:38:09.887Z,41.03
2024-03-14T01:39:12.593Z,36.85
2024-03-14T01:40:15.419Z,38.58
2024-03-14T01:41:20.011Z,43.40
2024-03-14T01:42:22.421Z,42.78
2024-03-14T01:43:24.802Z,38.55
2024-03-14T01:44:53.672Z,40.97
2024-03-14T01:45:55.949Z,36.17
2024-03-14T01:46:58.225Z,38.78
2024-03-14T01:48:00.556Z,43.38
2024-03-14T01:49:03.690Z,35.83
2024-03-14T01:50:07.604Z,38.17
2024-03-14T01:51:10.254Z,40.28
2024-03-14T01:52:12.433Z,36.55
2024-03-14T01:53:14.710Z,39.42
2024-03-14T01:54:18.083Z,39.63
2024-03-14T01:55:20.399Z,37.97
2024-03-14T01:56:23.311Z,38.17
2024-03-14T01:57:26.702Z,33.03
2024-03-14T01:58:28.920Z,41.97
2024-03-14T01:59:31.689Z,38.22
2024-03-14T02:00:39.821Z,39.20
2024-03-14T02:01:42.049Z,35.38
2024-03-14T02:02:44.295Z,38.72
2024-03-14T02:03:53.094Z,33.15
2024-03-14T02:05:15.003Z,39.33
2024-03-14T02:06:25.479Z,35.67
2024-03-14T02:08:30.476Z,35.35
2024-03-14T02:09:32.731Z,33.92
2024-03-14T02:10:36.727Z,40.97
2024-03-14T02:11:38.963Z,42.38
2024-03-14T02:12:41.755Z,37.50
2024-03-14T02:13:44.023Z,47.45
2024-03-14T02:14:46.546Z,40.83
2024-03-14T02:15:49.589Z,40.20
2024-03-14T02:16:51.662Z,37.78
2024-03-14T02:17:54.142Z,38.15
2024-03-14T02:18:56.632Z,41.08
2024-03-14T02:19:58.846Z,40.25
2024-03-14T02:21:01.392Z,40.25
2024-03-14T02:22:03.668Z,40.45
2024-03-14T02:23:06.079Z,40.95
2024-03-14T02:24:08.594Z,40.60
2024-03-14T02:25:11.523Z,41.15
2024-03-14T02:26:14.117Z,43.25
2024-03-14T02:27:16.758Z,41.85
2024-03-14T02:28:19.055Z,40.08
2024-03-14T02:29:21.154Z,40.67
2024-03-14T02:30:23.390Z,38.47
2024-03-14T02:31:25.500Z,39.70
2024-03-14T02:32:27.964Z,43.55
2024-03-14T02:33:30.144Z,36.28
2024-03-14T02:34:32.393Z,42.95
2024-03-14T02:35:34.709Z,37.08
2024-03-14T02:36:37.102Z,44.00
2024-03-14T02:37:39.566Z,42.83
2024-03-14T02:38:41.811Z,39.92
2024-03-14T02:39:45.962Z,37.78
2024-03-14T02:40:48.220Z,35.78
2024-03-14T02:41:53.137Z,38.95
2024-03-14T02:42:56.570Z,40.85
2024-03-14T02:43:59.750Z,39.28
2024-03-14T02:45:02.151Z,39.35
2024-03-14T02:46:04.660Z,38.38
2024-03-14T02:47:09.927Z,37.33
2024-03-14T02:48:12.343Z,40.00
2024-03-14T02:49:15.437Z,36.70
2024-03-14T02:50:18.040Z,38.65
2024-03-14T02:51:21.111Z,37.00
2024-03-14T02:52:23.377Z,37.50
2024-03-14T02:53:25.816Z,42.85
2024-03-14T02:54:31.378Z,40.33
2024-03-14T02:55:33.751Z,42.20
2024-03-14T02:56:36.111Z,34.45
2024-03-14T02:57:38.298Z,40.92
2024-03-14T02:58:40.363Z,43.05
2024-03-14T02:59:42.755Z,39.10
2024-03-14T03:00:44.930Z,42.28
2024-03-14T03:01:48.374Z,43.72
2024-03-14T03:02:50.752Z,39.38
2024-03-14T03:03:54.973Z,39.45
2024-03-14T03:04:57.969Z,37.47
2024-03-14T03:06:00.366Z,39.50
2024-03-14T03:07:06.981Z,36.95
2024-03-14T03:08:09.412Z,45.42
2024-03-14T03:09:16.286Z,43.05
2024-03-14T03:10:23.848Z,37.85
2024-03-14T03:11:26.876Z,43.90
2024-03-14T03:12:29.216Z,41.78
2024-03-14T03:13:31.414Z,41.63
2024-03-14T03:14:33.710Z,42.22
2024-03-14T03:15:36.117Z,43.13
2024-03-14T03:16:38.736Z,42.22
2024-03-14T03:17:42.113Z,41.17
2024-03-14T03:18:44.469Z,42.83
2024-03-14T03:19:46.956Z,43.30
2024-03-14T03:20:49.341Z,38.60
2024-03-14T03:21:51.755Z,40.53
2024-03-14T03:23:10.489Z,41.47
2024-03-14T03:24:14.004Z,40.47
2024-03-14T03:25:16.370Z,38.55
2024-03-14T03:26:20.673Z,40.42
2024-03-14T03:27:22.942Z,44.90
2024-03-14T03:28:28.544Z,39.55
2024-03-14T03:29:31.106Z,38.70
2024-03-14T03:30:33.468Z,43.15
2024-03-14T03:31:36.042Z,38.53
2024-03-14T03:32:38.317Z,39.72
2024-03-14T03:33:40.780Z,37.50
2024-03-14T03:34:43.010Z,38.92
2024-03-14T03:35:49.190Z,40.55
2024-03-14T03:36:51.866Z,45.45
2024-03-14T03:37:56.344Z,36.35
2024-03-14T03:38:58.844Z,36.63
2024-03-14T03:40:02.041Z,35.92
2024-03-14T03:41:04.610Z,38.10
2024-03-14T03:42:09.290Z,35.90
2024-03-14T03:43:14.750Z,36.30
2024-03-14T03:44:17.282Z,39.33
2024-03-14T03:45:21.714Z,40.67
2024-03-14T03:46:24.127Z,33.78
2024-03-14T03:47:26.315Z,37.03
2024-03-14T03:48:28.516Z,41.03
2024-03-14T03:49:30.667Z,36.95
2024-03-14T03:50:32.979Z,34.28
2024-03-14T03:51:36.834Z,38.33
2024-03-14T03:52:42.109Z,38.22
2024-03-14T03:53:44.263Z,38.75
2024-03-14T03:54:47.999Z,38.67
2024-03-14T03:55:50.606Z,40.72
2024-03-14T03:56:55.760Z,41.25
2024-03-14T03:57:58.229Z,36.45
2024-03-14T03:59:00.362Z,35.45
2024-03-14T04:00:09.238Z,36.67
2024-03-14T04:01:14.709Z,37.50
2024-03-14T04:02:19.337Z,40.10
2024-03-14T04:03:21.683Z,34.90
2024-03-14T04:04:24.324Z,42.13
2024-03-14T04:05:26.769Z,34.63
2024-03-14T04:06:28.986Z,35.15
2024-03-14T04:07:35.409Z,38.90
2024-03-14T04:08:41.528Z,36.00
2024-03-14T04:09:46.713Z,35.83
2024-03-14T04:10:48.964Z,34.38
2024-03-14T04:11:51.285Z,34.95
2024-03-14T04:12:55.657Z,36.42
2024-03-14T04:13:59.524Z,32.30
2024-03-14T04:15:01.778Z,34.45
2024-03-14T04:16:06.666Z,34.55
2024-03-14T04:17:09.127Z,33.72
2024-03-14T04:18:11.520Z,39.22
2024-03-14T04:19:13.873Z,36.20
2024-03-14T04:20:18.391Z,42.50
2024-03-14T04:21:20.685Z,35.33
2024-03-14T04:22:23.007Z,37.53
2024-03-14T04:23:28.153Z,38.17
2024-03-14T04:24:30.542Z,37.47
2024-03-14T04:25:33.557Z,31.45
2024-03-14T04:26:35.727Z,33.63
2024-03-14T04:27:43.060Z,36.92
2024-03-14T04:28:46.146Z,36.90
2024-03-14T04:29:49.279Z,32.17
2024-03-14T04:30:54.787Z,33.65
2024-03-14T04:31:58.242Z,35.20
2024-03-14T04:33:00.707Z,38.60
2024-03-14T04:34:06.200Z,32.88
2024-03-14T04:35:11.545Z,36.00
2024-03-14T04:36:13.963Z,38.90
2024-03-14T04:37:17.079Z,38.65
2024-03-14T04:38:19.954Z,32.70
2024-03-14T04:39:22.543Z,33.45
2024-03-14T04:40:25.060Z,36.45
2024-03-14T04:41:29.568Z,36.72
2024-03-14T04:42:33.426Z,33.30
2024-03-14T04:43:35.766Z,31.73
2024-03-14T04:44:38.309Z,32.45
2024-03-14T04:45:42.352Z,33.53
2024-03-14T04:46:44.578Z,31.58
2024-03-14T04:47:47.096Z,36.42
2024-03-14T04:48:52.726Z,31.45
2024-03-14T04:49:55.148Z,31.27
2024-03-14T04:50:57.530Z,34.28
2024-03-14T04:51:59.828Z,32.05
2024-03-14T04:53:02.081Z,31.27
2024-03-14T04:54:04.402Z,33.90
2024-03-14T04:55:09.832Z,36.88
2024-03-14T04:56:12.153Z,31.58
2024-03-14T04:57:14.587Z,40.08
2024-03-14T04:58:17.478Z,31.15
2024-03-14T04:59:21.970Z,31.45
2024-03-14T05:00:27.263Z,38.47
2024-03-14T05:01:32.726Z,35.03
2024-03-14T05:02:35.072Z,35.38
2024-03-14T05:03:37.531Z,31.60
2024-03-14T05:04:39.888Z,28.73
2024-03-14T05:05:42.343Z,34.45
2024-03-14T05:06:47.569Z,31.83
2024-03-14T05:07:50.190Z,34.17
2024-03-14T05:08:52.551Z,36.42
2024-03-14T05:09:55.468Z,31.38
2024-03-14T05:10:57.815Z,31.75
2024-03-14T05:12:00.414Z,31.08
2024-03-14T05:13:03.329Z,29.13
2024-03-14T05:14:07.827Z,35.33
2024-03-14T05:15:10.365Z,31.13
2024-03-14T05:16:13.086Z,27.27
2024-03-14T05:17:15.901Z,30.55
2024-03-14T05:18:18.157Z,31.52
2024-03-14T05:19:27.302Z,37.90
2024-03-14T05:20:31.369Z,27.92
2024-03-14T05:21:33.829Z,30.52
2024-03-14T05:22:36.198Z,32.03
2024-03-14T05:23:38.672Z,30.25
2024-03-14T05:24:40.885Z,27.63
2024-03-14T05:25:43.867Z,31.08
2024-03-14T05:26:46.337Z,29.42
2024-03-14T05:27:51.867Z,34.78
2024-03-14T05:28:55.132Z,34.97
2024-03-14T05:29:57.312Z,34.60
2024-03-14T05:31:02.453Z,32.53
2024-03-14T05:32:13.332Z,33.47
2024-03-14T05:34:17.891Z,28.98
2024-03-14T05:35:20.871Z,33.42
2024-03-14T05:36:23.988Z,34.10
2024-03-14T05:37:26.404Z,32.85
2024-03-14T05:38:28.544Z,35.78
2024-03-14T05:39:30.825Z,34.95
2024-03-14T05:40:33.361Z,31.70
2024-03-14T05:41:35.632Z,36.20
2024-03-14T05:42:38.168Z,36.00
2024-03-14T05:43:40.461Z,37.15
2024-03-14T05:44:43.368Z,35.72
2024-03-14T05:45:45.596Z,36.75
2024-03-14T05:46:48.195Z,27.98
2024-03-14T05:47:52.326Z,34.65
2024-03-14T05:48:57.778Z,31.40
2024-03-14T05:50:01.439Z,36.03
2024-03-14T05:51:05.452Z,35.00
2024-03-14T05:52:07.929Z,31.00
2024-03-14T05:53:10.771Z,35.25
2024-03-14T05:54:13.011Z,33.72
2024-03-14T05:55:15.323Z,31.85
2024-03-14T05:56:17.520Z,37.15
2024-03-14T05:57:20.183Z,36.30
2024-03-14T05:58:23.002Z,36.55
2024-03-14T05:59:25.587Z,36.38
2024-03-14T06:00:30.496Z,32.83
2024-03-14T06:01:33.012Z,34.55
2024-03-14T06:02:35.256Z,37.80
2024-03-14T06:03:37.516Z,32.55
2024-03-14T06:04:39.878Z,33.10
2024-03-14T06:05:42.728Z,35.83
2024-03-14T06:06:45.502Z,33.10
2024-03-14T06:07:47.626Z,34.10
2024-03-14T06:08:50.099Z,33.00
2024-03-14T06:09:52.600Z,35.30
2024-03-14T06:10:57.187Z,33.88
2024-03-14T06:12:03.128Z,35.55
2024-03-14T06:13:05.434Z,32.60
2024-03-14T06:14:08.109Z,35.72
2024-03-14T06:15:10.829Z,38.38
2024-03-14T06:16:13.261Z,38.78
2024-03-14T06:17:16.679Z,38.25
2024-03-14T06:18:23.298Z,43.15
2024-03-14T06:19:25.602Z,38.50
2024-03-14T06:20:28.462Z,37.30
2024-03-14T06:21:31.180Z,40.85
2024-03-14T06:22:35.648Z,40.88
2024-03-14T06:23:38.018Z,38.65
2024-03-14T06:24:40.511Z,35.85
2024-03-14T06:25:42.975Z,38.25
2024-03-14T06:26:46.512Z,35.88
2024-03-14T06:27:49.651Z,38.92
2024-03-14T06:28:55.633Z,36.60
2024-03-14T06:29:58.567Z,37.45
2024-03-14T06:31:00.974Z,35.13
2024-03-14T06:32:04.939Z,38.80
2024-03-14T06:33:07.287Z,38.22
2024-03-14T06:34:12.972Z,39.88
2024-03-14T06:35:15.319Z,41.53
2024-03-14T06:36:17.986Z,42.75
2024-03-14T06:37:20.407Z,39.72
2024-03-14T06:38:26.154Z,33.50
2024-03-14T06:39:28.503Z,38.55
2024-03-14T06:40:30.906Z,35.63
2024-03-14T06:41:34.341Z,37.58
2024-03-14T06:42:36.704Z,33.30
2024-03-14T06:43:39.278Z,32.78
2024-03-14T06:44:44.014Z,35.15
2024-03-14T06:45:46.683Z,36.42
2024-03-14T06:46:49.483Z,34.47
2024-03-14T06:47:51.695Z,32.42
2024-03-14T06:48:57.410Z,36.30
2024-03-14T06:50:00.484Z,32.70
2024-03-14T06:51:03.048Z,36.25
2024-03-14T06:52:07.517Z,27.50
2024-03-14T06:53:09.897Z,32.15
2024-03-14T06:54:13.997Z,34.60
2024-03-14T06:55:16.856Z,30.77
2024-03-14T06:56:19.261Z,33.70
2024-03-14T06:57:22.332Z,33.40
2024-03-14T06:58:25.897Z,33.17
2024-03-14T06:59:29.408Z,29.17
2024-03-14T07:00:32.221Z,28.73
2024-03-14T07:01:35.386Z,32.03
2024-03-14T07:02:41.590Z,29.65
2024-03-14T07:03:44.586Z,26.95
2024-03-14T07:04:49.559Z,29.27
2024-03-14T07:05:59.138Z,30.33
2024-03-14T07:07:03.208Z,29.67
2024-03-14T07:08:06.951Z,28.27
2024-03-14T07:09:11.558Z,30.50
2024-03-14T07:10:15.135Z,26.77
2024-03-14T07:11:17.853Z,28.95
2024-03-14T07:12:22.603Z,29.45
2024-03-14T07:13:26.916Z,29.85
2024-03-14T07:14:30.751Z,30.10
2024-03-14T07:15:33.174Z,28.25
2024-03-14T07:16:35.459Z,28.40
2024-03-14T07:17:38.918Z,32.65
2024-03-14T07:18:42.598Z,32.00
2024-03-14T07:19:44.994Z,31.77
2024-03-14T07:20:47.588Z,29.13
2024-03-14T07:21:55.311Z,27.65
2024-03-14T07:22:59.633Z,38.10
2024-03-14T07:24:02.148Z,30.30
2024-03-14T07:25:08.506Z,32.58
2024-03-14T07:26:14.537Z,35.47
2024-03-14T07:27:16.937Z,32.65
2024-03-14T07:28:20.462Z,37.47
2024-03-14T07:29:23.114Z,32.85
2024-03-14T07:30:26.420Z,34.58
2024-03-14T07:31:32.079Z,33.92
2024-03-14T07:32:38.106Z,34.72
2024-03-14T07:33:40.535Z,29.73
2024-03-14T07:34:46.307Z,31.17
2024-03-14T07:35:50.089Z,32.38
2024-03-14T07:36:52.380Z,31.77
2024-03-14T07:37:54.623Z,28.35
2024-03-14T07:38:57.998Z,29.60
2024-03-14T07:40:00.654Z,28.48
2024-03-14T07:41:03.016Z,34.80
2024-03-14T07:42:06.255Z,25.52
2024-03-14T07:43:12.635Z,32.45
2024-03-14T07:44:21.740Z,30.38
2024-03-14T07:45:34.147Z,29.45
2024-03-14T07:46:36.518Z,28.10
2024-03-14T07:47:38.931Z,29.77
2024-03-14T07:48:42.762Z,27.63
2024-03-14T07:49:46.652Z,30.60
2024-03-14T07:50:48.896Z,30.00
2024-03-14T07:51:51.320Z,31.65
2024-03-14T07:52:55.673Z,32.70
2024-03-14T07:53:58.103Z,31.00
2024-03-14T07:55:01.168Z,35.25
2024-03-14T07:56:11.459Z,50.22
2024-03-14T07:57:17.450Z,34.03
2024-03-14T07:58:19.727Z,32.08
2024-03-14T07:59:26.385Z,25.40
2024-03-14T08:00:33.083Z,31.65
2024-03-14T08:01:35.998Z,27.25
2024-03-14T08:02:40.688Z,26.42
2024-03-14T08:03:49.424Z,28.30
2024-03-14T08:04:52.337Z,30.27
2024-03-14T08:05:55.750Z,27.58
2024-03-14T08:06:58.428Z,30.23
2024-03-14T08:08:13.929Z,33.20
2024-03-14T08:09:27.770Z,27.77
2024-03-14T08:10:30.901Z,26.77
2024-03-14T08:11:33.314Z,26.38
2024-03-14T08:12:35.920Z,28.10
2024-03-14T08:13:38.466Z,27.92
2024-03-14T08:14:45.440Z,33.47
2024-03-14T08:15:54.302Z,31.90
2024-03-14T08:16:57.315Z,27.73
2024-03-14T08:18:00.924Z,30.17
2024-03-14T08:19:03.250Z,24.95
2024-03-14T08:20:09.189Z,24.98
2024-03-14T08:21:12.493Z,24.98
2024-03-14T08:22:16.098Z,24.23
2024-03-14T08:23:18.498Z,29.42
2024-03-14T08:24:21.306Z,25.58
2024-03-14T08:25:26.321Z,26.45
2024-03-14T08:26:28.463Z,23.08
2024-03-14T08:27:30.695Z,24.25
2024-03-14T08:28:33.539Z,25.98
2024-03-14T08:29:37.480Z,24.83
2024-03-14T08:30:41.133Z,22.02
2024-03-14T08:31:43.741Z,25.02
2024-03-14T08:32:45.969Z,24.85
2024-03-14T08:33:51.158Z,26.25
2024-03-14T08:34:55.194Z,25.92
2024-03-14T08:35:58.624Z,25.73
2024-03-14T08:37:01.183Z,22.42
2024-03-14T08:38:05.977Z,24.92
2024-03-14T08:39:08.404Z,23.10
2024-03-14T08:40:11.229Z,22.52
2024-03-14T08:41:15.175Z,24.52
2024-03-14T08:42:24.806Z,22.40
2024-03-14T08:43:27.489Z,25.50
2024-03-14T08:44:30.093Z,25.25
2024-03-14T08:45:37.126Z,20.08
2024-03-14T08:46:39.654Z,21.60
2024-03-14T08:47:41.951Z,22.08
2024-03-14T08:48:44.456Z,20.08
2024-03-14T08:49:48.940Z,21.70
2024-03-14T08:50:51.213Z,24.90
2024-03-14T08:51:53.740Z,25.40
2024-03-14T08:52:56.585Z,23.60
2024-03-14T08:54:17.815Z,22.45
2024-03-14T08:55:30.963Z,21.13
2024-03-14T08:56:33.448Z,24.73
2024-03-14T08:57:35.995Z,28.38
2024-03-14T08:58:38.312Z,22.60
2024-03-14T08:59:41.063Z,23.02
2024-03-14T09:00:44.047Z,19.63
2024-03-14T09:01:46.380Z,20.08
2024-03-14T09:02:50.346Z,21.73
2024-03-14T09:03:52.711Z,21.35
2024-03-14T09:04:54.864Z,21.00
2024-03-14T09:05:57.144Z,23.73
2024-03-14T09:06:59.389Z,19.77
2024-03-14T09:08:01.819Z,21.45
2024-03-14T09:09:07.240Z,20.95
2024-03-14T09:10:24.722Z,20.50
2024-03-14T09:11:28.817Z,23.15
2024-03-14T09:12:31.520Z,23.15
2024-03-14T09:13:36.526Z,25.08
2024-03-14T09:14:39.003Z,26.10
2024-03-14T09:15:41.712Z,21.50
2024-03-14T09:16:46.063Z,25.58
2024-03-14T09:17:49.103Z,19.38
2024-03-14T09:18:51.605Z,24.15
2024-03-14T09:19:53.888Z,21.40
2024-03-14T09:20:59.928Z,20.00
2024-03-14T09:22:02.946Z,20.48
2024-03-14T09:23:06.118Z,21.48
2024-03-14T09:24:09.275Z,20.80
2024-03-14T09:25:13.907Z,21.05
2024-03-14T09:26:17.694Z,21.17
2024-03-14T09:27:20.024Z,19.73
2024-03-14T09:28:22.706Z,19.20
2024-03-14T09:29:25.178Z,19.83
2024-03-14T09:30:27.543Z,22.48
2024-03-14T09:31:29.827Z,24.70
2024-03-14T09:32:32.148Z,19.80
2024-03-14T09:33:34.496Z,20.60
2024-03-14T09:34:39.736Z,20.23
2024-03-14T09:35:47.712Z,23.33
2024-03-14T09:36:56.733Z,23.58
2024-03-14T09:37:59.061Z,22.52
2024-03-14T09:39:01.609Z,26.13
2024-03-14T09:40:07.198Z,24.00
2024-03-14T09:41:22.979Z,19.48
2024-03-14T09:42:27.280Z,19.90
2024-03-14T09:43:29.979Z,21.17
2024-03-14T09:44:33.322Z,22.83
2024-03-14T09:45:36.737Z,24.30
2024-03-14T09:46:40.078Z,21.75
2024-03-14T09:47:42.857Z,23.27
2024-03-14T09:48:47.410Z,22.42
2024-03-14T09:49:55.190Z,24.25
2024-03-14T09:50:58.406Z,28.92
2024-03-14T09:52:00.831Z,22.02
2024-03-14T09:53:08.451Z,22.80
2024-03-14T09:54:11.672Z,20.10
2024-03-14T09:55:14.902Z,21.98
2024-03-14T09:56:17.461Z,21.52
2024-03-14T09:57:20.637Z,26.48
2024-03-14T09:58:23.363Z,21.23
2024-03-14T09:59:25.794Z,23.65
2024-03-14T10:00:28.822Z,19.63
2024-03-14T10:01:31.325Z,26.55
2024-03-14T10:02:34.077Z,20.35
2024-03-14T10:03:38.139Z,17.80
2024-03-14T10:04:41.084Z,19.67
2024-03-14T10:05:43.509Z,22.83
2024-03-14T10:06:46.339Z,32.33
2024-03-14T10:07:49.397Z,22.23
2024-03-14T10:08:52.864Z,19.25
2024-03-14T10:09:55.381Z,17.23
2024-03-14T10:10:57.721Z,14.32
2024-03-14T10:12:01.763Z,12.93
2024-03-14T10:13:04.520Z,17.15
2024-03-14T10:14:23.264Z,14.60
2024-03-14T10:15:28.491Z,15.25
2024-03-14T10:16:30.876Z,16.33
2024-03-14T10:17:34.203Z,15.32
2024-03-14T10:18:36.936Z,16.00
2024-03-14T10:19:39.346Z,16.33
2024-03-14T10:20:41.727Z,15.30
2024-03-14T10:21:44.747Z,17.70
2024-03-14T10:22:50.936Z,16.48
2024-03-14T10:23:53.297Z,13.80
2024-03-14T10:24:55.675Z,15.38
2024-03-14T10:25:59.303Z,14.82
2024-03-14T10:27:03.230Z,14.35
2024-03-14T10:28:19.243Z,23.10
2024-03-14T10:29:24.085Z,19.58
2024-03-14T10:30:30.074Z,15.65
2024-03-14T10:31:34.388Z,19.83
2024-03-14T10:32:39.663Z,17.10
2024-03-14T10:33:42.233Z,14.98
2024-03-14T10:34:46.095Z,15.38
2024-03-14T10:35:48.655Z,13.35
2024-03-14T10:36:55.542Z,13.63
2024-03-14T10:37:58.693Z,13.65
2024-03-14T10:39:03.393Z,20.88
2024-03-14T10:40:17.440Z,16.02
2024-03-14T10:41:19.848Z,12.15
2024-03-14T10:42:30.124Z,12.38
2024-03-14T10:44:42.365Z,11.93
2024-03-14T10:45:45.025Z,13.30
2024-03-14T10:46:51.598Z,12.60
2024-03-14T10:47:55.418Z,29.10
2024-03-14T10:48:57.839Z,14.90
2024-03-14T10:50:00.616Z,16.52
2024-03-14T10:51:03.192Z,15.20
2024-03-14T10:52:08.188Z,11.10
2024-03-14T10:53:11.166Z,17.38
2024-03-14T10:54:13.868Z,12.93
2024-03-14T10:55:22.687Z,12.77
2024-03-14T10:56:25.764Z,12.77
2024-03-14T10:57:30.283Z,11.25
2024-03-14T10:58:33.311Z,9.50
2024-03-14T10:59:36.448Z,13.63
2024-03-14T11:00:40.785Z,11.90
2024-03-14T11:01:51.375Z,11.70
2024-03-14T11:02:55.056Z,11.90
2024-03-14T11:03:58.311Z,13.90
2024-03-14T11:05:00.857Z,12.13
2024-03-14T11:06:06.054Z,12.85
2024-03-14T11:07:09.675Z,19.40
2024-03-14T11:08:12.365Z,16.73
2024-03-14T11:09:16.541Z,12.10
2024-03-14T11:10:30.393Z,11.18
2024-03-14T11:11:37.396Z,13.95
2024-03-14T11:12:41.294Z,11.57
2024-03-14T11:13:45.759Z,14.38
2024-03-14T11:14:52.736Z,13.15
2024-03-14T11:15:58.304Z,18.58
2024-03-14T11:17:03.377Z,12.98
2024-03-14T11:18:14.840Z,12.55
2024-03-14T11:19:22.221Z,18.27
2024-03-14T11:20:26.998Z,13.13
2024-03-14T11:21:36.114Z,11.93
2024-03-14T11:22:43.526Z,13.25
2024-03-14T11:23:47.978Z,18.55
2024-03-14T11:24:52.918Z,13.27
2024-03-14T11:25:59.351Z,12.40
2024-03-14T11:27:03.057Z,20.02
2024-03-14T11:28:06.516Z,13.68
2024-03-14T11:29:09.769Z,15.52
2024-03-14T11:30:20.697Z,19.20
2024-03-14T11:31:23.272Z,13.15
2024-03-14T11:32:26.528Z,16.42
2024-03-14T11:33:29.230Z,11.75
2024-03-14T11:34:33.012Z,13.18
2024-03-14T11:35:45.269Z,13.38
2024-03-14T11:36:52.231Z,15.02
2024-03-14T11:37:54.745Z,17.35
2024-03-14T11:39:22.563Z,13.20
2024-03-14T11:40:30.338Z,15.95
2024-03-14T11:41:32.716Z,15.70
2024-03-14T11:42:36.503Z,14.80
2024-03-14T11:43:39.114Z,16.33
2024-03-14T11:44:46.573Z,16.88
2024-03-14T11:45:54.934Z,16.70
2024-03-14T11:46:58.898Z,15.05
2024-03-14T11:48:01.361Z,14.50
2024-03-14T11:49:18.277Z,16.60
2024-03-14T11:50:24.049Z,15.40
2024-03-14T11:51:29.550Z,16.20
2024-03-14T11:52:31.892Z,15.20
2024-03-14T11:53:34.286Z,19.55
2024-03-14T11:54:37.355Z,17.60
2024-03-14T11:55:42.149Z,17.08
2024-03-14T11:56:46.839Z,18.02
2024-03-14T11:57:49.378Z,18.02
2024-03-14T11:58:52.772Z,21.60
2024-03-14T12:00:03.213Z,19.75
2024-03-14T12:01:19.679Z,20.17
2024-03-14T12:02:29.258Z,17.23
2024-03-14T12:03:32.668Z,17.77
2024-03-14T12:04:37.546Z,19.65
2024-03-14T12:05:43.808Z,16.70
2024-03-14T12:06:49.764Z,16.90
2024-03-14T12:07:56.364Z,22.08
2024-03-14T12:08:59.318Z,18.50
2024-03-14T12:10:04.415Z,22.33
2024-03-14T12:11:06.960Z,17.65
2024-03-14T12:12:10.112Z,21.48
2024-03-14T12:13:16.066Z,18.83
2024-03-14T12:14:21.634Z,24.55
2024-03-14T12:15:27.378Z,18.45
2024-03-14T12:16:29.784Z,18.48
2024-03-14T12:17:32.155Z,19.88
2024-03-14T12:18:35.274Z,16.77
2024-03-14T12:19:37.534Z,16.08
2024-03-14T12:20:48.293Z,17.83
2024-03-14T12:21:58.645Z,18.20
2024-03-14T12:23:01.631Z,14.68
2024-03-14T12:24:04.008Z,16.60
2024-03-14T12:25:06.665Z,15.95
2024-03-14T12:26:09.784Z,15.48
2024-03-14T12:27:12.752Z,18.00
2024-03-14T12:28:15.895Z,17.15
2024-03-14T12:29:20.818Z,17.83
2024-03-14T12:30:23.236Z,15.73
2024-03-14T12:31:25.546Z,16.90
2024-03-14T12:32:31.152Z,16.05
2024-03-14T12:33:33.426Z,19.50
2024-03-14T12:34:36.762Z,18.17
2024-03-14T12:35:41.542Z,17.25
2024-03-14T12:36:47.704Z,17.30
2024-03-14T12:37:50.830Z,17.58
2024-03-14T12:38:53.348Z,15.23
2024-03-14T12:39:56.431Z,17.67
2024-03-14T12:41:00.321Z,17.00
2024-03-14T12:42:03.553Z,18.48
2024-03-14T12:43:07.488Z,26.45
2024-03-14T12:44:09.864Z,15.80
2024-03-14T12:45:12.766Z,18.23
2024-03-14T12:46:19.122Z,19.50
2024-03-14T12:47:21.632Z,14.85
2024-03-14T12:48:24.355Z,18.50
2024-03-14T12:49:26.850Z,16.73
2024-03-14T12:50:32.419Z,17.77
2024-03-14T12:51:35.614Z,17.42
2024-03-14T12:52:38.244Z,13.90
2024-03-14T12:53:41.452Z,16.63
2024-03-14T12:54:43.752Z,16.95
2024-03-14T12:55:53.205Z,16.88
2024-03-14T12:56:57.195Z,19.75
2024-03-14T12:58:04.301Z,13.25
2024-03-14T12:59:13.820Z,13.18
2024-03-14T13:00:20.796Z,16.60
2024-03-14T13:01:30.149Z,13.32
2024-03-14T13:02:34.422Z,15.50
2024-03-14T13:03:38.645Z,14.80
2024-03-14T13:04:44.235Z,25.38
2024-03-14T13:05:56.251Z,16.13
2024-03-14T13:07:02.650Z,14.85
2024-03-14T13:08:05.914Z,13.43
2024-03-14T13:09:15.520Z,22.30
2024-03-14T13:10:23.375Z,18.20
2024-03-14T13:11:26.765Z,16.67
2024-03-14T13:12:29.532Z,14.55
2024-03-14T13:13:32.431Z,18.60
2024-03-14T13:14:34.698Z,16.73
2024-03-14T13:15:39.012Z,14.85
2024-03-14T13:16:41.457Z,16.30
2024-03-14T13:17:49.848Z,16.17
2024-03-14T13:18:57.372Z,15.68
2024-03-14T13:20:03.084Z,17.00
2024-03-14T13:21:06.247Z,18.15
2024-03-14T13:22:12.531Z,16.52
2024-03-14T13:23:14.904Z,14.32
2024-03-14T13:24:18.179Z,16.42
2024-03-14T13:25:22.866Z,21.65
2024-03-14T13:26:25.303Z,23.13
2024-03-14T13:27:27.898Z,19.83
2024-03-14T13:28:30.982Z,18.23
2024-03-14T13:29:33.211Z,20.45
2024-03-14T13:30:36.744Z,17.83
2024-03-14T13:31:39.182Z,20.73
2024-03-14T13:32:41.436Z,20.08
2024-03-14T13:33:43.831Z,20.25
2024-03-14T13:34:46.391Z,20.48
2024-03-14T13:35:48.688Z,14.25
2024-03-14T13:36:51.712Z,20.08
2024-03-14T13:38:00.115Z,17.38
2024-03-14T13:39:06.270Z,21.77
2024-03-14T13:41:20.782Z,18.30
2024-03-14T13:42:25.389Z,19.35
2024-03-14T13:43:30.472Z,24.15
2024-03-14T13:44:34.888Z,18.85
2024-03-14T13:45:45.259Z,17.77
2024-03-14T13:46:47.938Z,20.63
2024-03-14T13:47:52.923Z,15.25